NPV4227 EGKK-LIRF
Flight info
| Callsign | NPV4227 |
|---|---|
| Flight time | 1h 57m |
| Altitude | 41000 |
| Route | SFD Y47 BENBO UL612 OGULO DCT OKASI DCT OKEKO DCT MOU DCT MADIV DCT MOKIP DCT TUFTA DCT KOGAS DCT MEDAM DCT NITAM DCT MOGBO DCT ELB DCT ELKAP |
| Aircraft | B788/H-SDE1E2E3FGHIJ2J3J4J5M1RWXY/LB1D1 |
Departure
| Time | 2026-05-05 21:08 |
|---|---|
| Airport | London Gatwick Airport (EGKK) |
Arrival
| Time | 2026-05-05 23:06 |
|---|---|
| Airport | Rome–Fiumicino Leonardo da Vinci International Airport (LIRF) |
| Time | Latitude | Longitude | Altitude | Speed | Heading |
|---|---|---|---|---|---|
| 2026-05-05 19:52 | 51.15865 | -0.17416 | 209 ft | 0 kts | 348° |
| 2026-05-05 20:46 | 51.15851 | -0.17411 | 216 ft | 2 kts | 346° |
| 2026-05-05 20:46 | 51.15835 | -0.17404 | 226 ft | 2 kts | 345° |
| 2026-05-05 20:47 | 51.15820 | -0.17396 | 222 ft | 2 kts | 341° |
| 2026-05-05 20:47 | 51.15804 | -0.17386 | 226 ft | 2 kts | 335° |
| 2026-05-05 20:47 | 51.15790 | -0.17372 | 223 ft | 2 kts | 320° |
| 2026-05-05 20:47 | 51.15783 | -0.17349 | 225 ft | 2 kts | 275° |
| 2026-05-05 20:48 | 51.15784 | -0.17340 | 224 ft | 0 kts | 263° |
| 2026-05-05 20:53 | 51.15783 | -0.17348 | 215 ft | 3 kts | 263° |
| 2026-05-05 20:53 | 51.15772 | -0.17436 | 222 ft | 13 kts | 258° |
| 2026-05-05 20:54 | 51.15746 | -0.17623 | 223 ft | 20 kts | 257° |
| 2026-05-05 20:54 | 51.15714 | -0.17843 | 220 ft | 20 kts | 257° |
| 2026-05-05 20:54 | 51.15684 | -0.18067 | 222 ft | 21 kts | 258° |
| 2026-05-05 20:54 | 51.15652 | -0.18292 | 222 ft | 21 kts | 257° |
| 2026-05-05 20:55 | 51.15621 | -0.18520 | 222 ft | 21 kts | 258° |
| 2026-05-05 20:55 | 51.15594 | -0.18721 | 219 ft | 10 kts | 257° |
| 2026-05-05 20:55 | 51.15569 | -0.18812 | 225 ft | 7 kts | 215° |
| 2026-05-05 20:55 | 51.15522 | -0.18817 | 222 ft | 8 kts | 171° |
| 2026-05-05 20:56 | 51.15446 | -0.18792 | 216 ft | 13 kts | 168° |
| 2026-05-05 20:56 | 51.15350 | -0.18758 | 224 ft | 15 kts | 167° |
| 2026-05-05 20:56 | 51.15250 | -0.18721 | 219 ft | 15 kts | 167° |
| 2026-05-05 20:56 | 51.15172 | -0.18693 | 221 ft | 10 kts | 167° |
| 2026-05-05 20:57 | 51.15143 | -0.18702 | 219 ft | 5 kts | 219° |
| 2026-05-05 20:57 | 51.15122 | -0.18783 | 221 ft | 12 kts | 255° |
| 2026-05-05 20:57 | 51.15097 | -0.18969 | 224 ft | 21 kts | 258° |
| 2026-05-05 20:57 | 51.15063 | -0.19219 | 217 ft | 21 kts | 257° |
| 2026-05-05 20:58 | 51.15031 | -0.19447 | 222 ft | 21 kts | 257° |
| 2026-05-05 20:58 | 51.14998 | -0.19676 | 222 ft | 21 kts | 258° |
| 2026-05-05 20:58 | 51.14967 | -0.19910 | 220 ft | 22 kts | 258° |
| 2026-05-05 20:58 | 51.14934 | -0.20150 | 217 ft | 22 kts | 257° |
| 2026-05-05 20:59 | 51.14901 | -0.20392 | 223 ft | 23 kts | 258° |
| 2026-05-05 20:59 | 51.14870 | -0.20615 | 221 ft | 20 kts | 257° |
| 2026-05-05 20:59 | 51.14838 | -0.20836 | 223 ft | 21 kts | 258° |
| 2026-05-05 20:59 | 51.14810 | -0.21048 | 225 ft | 10 kts | 257° |
| 2026-05-05 21:00 | 51.14807 | -0.21068 | 222 ft | 5 kts | 257° |
| 2026-05-05 21:00 | 51.14791 | -0.21160 | 222 ft | 13 kts | 252° |
| 2026-05-05 21:00 | 51.14762 | -0.21320 | 218 ft | 16 kts | 255° |
| 2026-05-05 21:00 | 51.14724 | -0.21405 | 223 ft | 4 kts | 175° |
| 2026-05-05 21:01 | 51.14713 | -0.21402 | 222 ft | 0 kts | 166° |
| 2026-05-05 21:02 | 51.14695 | -0.21391 | 218 ft | 6 kts | 150° |
| 2026-05-05 21:03 | 51.14652 | -0.21344 | 224 ft | 0 kts | 161° |
| 2026-05-05 21:06 | 51.14651 | -0.21344 | 224 ft | 2 kts | 161° |
| 2026-05-05 21:06 | 51.14601 | -0.21316 | 219 ft | 11 kts | 160° |
| 2026-05-05 21:06 | 51.14539 | -0.21268 | 222 ft | 9 kts | 130° |
| 2026-05-05 21:06 | 51.14521 | -0.21179 | 215 ft | 8 kts | 87° |
| 2026-05-05 21:07 | 51.14524 | -0.21138 | 222 ft | 0 kts | 79° |
| 2026-05-05 21:07 | 51.14524 | -0.21137 | 222 ft | 1 kts | 79° |
| 2026-05-05 21:07 | 51.14540 | -0.21020 | 223 ft | 32 kts | 78° |
| 2026-05-05 21:07 | 51.14644 | -0.20258 | 221 ft | 108 kts | 77° |
| 2026-05-05 21:08 | 51.14840 | -0.18767 | 385 ft | 153 kts | 83° |
| 2026-05-05 21:08 | 51.14957 | -0.17248 | 1489 ft | 134 kts | 83° |
| 2026-05-05 21:08 | 51.15163 | -0.15753 | 2142 ft | 147 kts | 73° |
| 2026-05-05 21:08 | 51.15480 | -0.14042 | 2657 ft | 175 kts | 73° |
| 2026-05-05 21:09 | 51.15790 | -0.12014 | 3229 ft | 202 kts | 75° |
| 2026-05-05 21:09 | 51.16077 | -0.09694 | 3907 ft | 223 kts | 82° |
| 2026-05-05 21:09 | 51.15688 | -0.07277 | 4941 ft | 233 kts | 115° |
| 2026-05-05 21:09 | 51.14509 | -0.05373 | 5632 ft | 261 kts | 152° |
| 2026-05-05 21:10 | 51.12689 | -0.04496 | 6005 ft | 285 kts | 167° |
| 2026-05-05 21:10 | 51.10726 | -0.03923 | 6004 ft | 285 kts | 170° |
| 2026-05-05 21:10 | 51.08811 | -0.03205 | 5992 ft | 283 kts | 158° |
| 2026-05-05 21:10 | 51.06945 | -0.02202 | 6002 ft | 284 kts | 163° |
| 2026-05-05 21:11 | 51.05033 | -0.01423 | 5997 ft | 283 kts | 165° |
| 2026-05-05 21:11 | 51.03138 | -0.00581 | 5998 ft | 283 kts | 162° |
| 2026-05-05 21:11 | 51.01257 | 0.00340 | 5991 ft | 283 kts | 162° |
| 2026-05-05 21:11 | 50.99374 | 0.01252 | 5995 ft | 283 kts | 162° |
| 2026-05-05 21:12 | 50.97484 | 0.02139 | 5995 ft | 283 kts | 162° |
| 2026-05-05 21:12 | 50.95590 | 0.03025 | 5992 ft | 284 kts | 162° |
| 2026-05-05 21:12 | 50.93699 | 0.03919 | 5993 ft | 283 kts | 162° |
| 2026-05-05 21:12 | 50.91810 | 0.04811 | 5991 ft | 283 kts | 162° |
| 2026-05-05 21:13 | 50.89918 | 0.05702 | 5985 ft | 284 kts | 162° |
| 2026-05-05 21:13 | 50.88021 | 0.06594 | 5987 ft | 284 kts | 162° |
| 2026-05-05 21:13 | 50.86131 | 0.07482 | 5985 ft | 284 kts | 162° |
| 2026-05-05 21:13 | 50.84235 | 0.08371 | 6010 ft | 288 kts | 162° |
| 2026-05-05 21:14 | 50.82338 | 0.09259 | 7152 ft | 281 kts | 162° |
| 2026-05-05 21:14 | 50.80439 | 0.10148 | 8203 ft | 287 kts | 162° |
| 2026-05-05 21:14 | 50.78514 | 0.11049 | 9308 ft | 291 kts | 163° |
| 2026-05-05 21:14 | 50.76545 | 0.11893 | 10242 ft | 300 kts | 170° |
| 2026-05-05 21:15 | 50.74392 | 0.11648 | 10640 ft | 326 kts | 193° |
| 2026-05-05 21:15 | 50.72095 | 0.10775 | 10980 ft | 352 kts | 194° |
| 2026-05-05 21:15 | 50.69701 | 0.09857 | 11980 ft | 355 kts | 193° |
| 2026-05-05 21:15 | 50.67312 | 0.08999 | 12924 ft | 360 kts | 192° |
| 2026-05-05 21:16 | 50.64852 | 0.08131 | 13879 ft | 364 kts | 192° |
| 2026-05-05 21:16 | 50.62363 | 0.07232 | 14711 ft | 370 kts | 193° |
| 2026-05-05 21:16 | 50.59837 | 0.06310 | 15517 ft | 375 kts | 192° |
| 2026-05-05 21:16 | 50.57276 | 0.05384 | 16345 ft | 380 kts | 192° |
| 2026-05-05 21:17 | 50.54682 | 0.04454 | 17165 ft | 385 kts | 192° |
| 2026-05-05 21:17 | 50.52032 | 0.03668 | 17942 ft | 389 kts | 181° |
| 2026-05-05 21:17 | 50.49348 | 0.04140 | 18688 ft | 391 kts | 161° |
| 2026-05-05 21:17 | 50.46879 | 0.05927 | 19350 ft | 394 kts | 147° |
| 2026-05-05 21:18 | 50.44624 | 0.08391 | 20035 ft | 396 kts | 142° |
| 2026-05-05 21:18 | 50.42400 | 0.10982 | 20716 ft | 400 kts | 143° |
| 2026-05-05 21:18 | 50.40046 | 0.13354 | 21392 ft | 404 kts | 149° |
| 2026-05-05 21:18 | 50.37555 | 0.15435 | 22043 ft | 408 kts | 151° |
| 2026-05-05 21:19 | 50.35042 | 0.17565 | 22681 ft | 411 kts | 149° |
| 2026-05-05 21:19 | 50.32577 | 0.19873 | 23311 ft | 414 kts | 147° |
| 2026-05-05 21:19 | 50.30095 | 0.22211 | 23859 ft | 418 kts | 149° |
| 2026-05-05 21:19 | 50.27568 | 0.24477 | 24393 ft | 420 kts | 149° |
| 2026-05-05 21:20 | 50.25022 | 0.26735 | 24924 ft | 422 kts | 149° |
| 2026-05-05 21:20 | 50.22480 | 0.29036 | 25427 ft | 424 kts | 149° |
| 2026-05-05 21:20 | 50.19928 | 0.31363 | 25943 ft | 426 kts | 149° |
| 2026-05-05 21:20 | 50.17358 | 0.33681 | 26431 ft | 428 kts | 149° |
| 2026-05-05 21:21 | 50.14771 | 0.35997 | 26920 ft | 430 kts | 149° |
| 2026-05-05 21:21 | 50.12178 | 0.38326 | 27389 ft | 432 kts | 149° |
| 2026-05-05 21:21 | 50.09573 | 0.40672 | 27861 ft | 433 kts | 149° |
| 2026-05-05 21:21 | 50.06954 | 0.43023 | 28318 ft | 435 kts | 149° |
| 2026-05-05 21:22 | 50.04327 | 0.45373 | 28779 ft | 437 kts | 149° |
| 2026-05-05 21:22 | 50.01691 | 0.47728 | 29222 ft | 438 kts | 149° |
| 2026-05-05 21:22 | 49.99040 | 0.50098 | 29669 ft | 440 kts | 149° |
| 2026-05-05 21:22 | 49.96382 | 0.52471 | 30083 ft | 441 kts | 149° |
| 2026-05-05 21:23 | 49.93713 | 0.54849 | 30383 ft | 444 kts | 149° |
| 2026-05-05 21:23 | 49.91030 | 0.57235 | 30712 ft | 446 kts | 149° |
| 2026-05-05 21:23 | 49.88331 | 0.59634 | 31037 ft | 447 kts | 149° |
| 2026-05-05 21:23 | 49.85653 | 0.62107 | 31332 ft | 448 kts | 143° |
| 2026-05-05 21:24 | 49.83206 | 0.65102 | 31612 ft | 450 kts | 140° |
| 2026-05-05 21:24 | 49.80773 | 0.68168 | 31941 ft | 451 kts | 140° |
| 2026-05-05 21:24 | 49.78333 | 0.71245 | 32241 ft | 453 kts | 140° |
| 2026-05-05 21:24 | 49.75913 | 0.74287 | 32531 ft | 455 kts | 140° |
| 2026-05-05 21:25 | 49.73454 | 0.77372 | 32842 ft | 456 kts | 140° |
| 2026-05-05 21:25 | 49.70985 | 0.80466 | 33129 ft | 458 kts | 140° |
| 2026-05-05 21:25 | 49.68506 | 0.83571 | 33419 ft | 459 kts | 140° |
| 2026-05-05 21:25 | 49.66018 | 0.86683 | 33708 ft | 460 kts | 140° |
| 2026-05-05 21:26 | 49.63531 | 0.89789 | 33951 ft | 462 kts | 140° |
| 2026-05-05 21:26 | 49.61021 | 0.92917 | 34158 ft | 464 kts | 140° |
| 2026-05-05 21:26 | 49.58509 | 0.96046 | 34396 ft | 465 kts | 140° |
| 2026-05-05 21:26 | 49.55989 | 0.99180 | 34602 ft | 466 kts | 141° |
| 2026-05-05 21:27 | 49.53462 | 1.02319 | 34842 ft | 468 kts | 141° |
| 2026-05-05 21:27 | 49.50923 | 1.05467 | 35068 ft | 469 kts | 141° |
| 2026-05-05 21:27 | 49.48375 | 1.08623 | 35272 ft | 471 kts | 141° |
| 2026-05-05 21:27 | 49.45821 | 1.11781 | 35501 ft | 472 kts | 141° |
| 2026-05-05 21:28 | 49.43257 | 1.14948 | 35730 ft | 473 kts | 141° |
| 2026-05-05 21:28 | 49.40687 | 1.18117 | 35949 ft | 475 kts | 141° |
| 2026-05-05 21:28 | 49.38108 | 1.21294 | 36181 ft | 476 kts | 141° |
| 2026-05-05 21:28 | 49.35526 | 1.24471 | 36429 ft | 476 kts | 141° |
| 2026-05-05 21:29 | 49.32936 | 1.27653 | 36665 ft | 477 kts | 142° |
| 2026-05-05 21:29 | 49.30337 | 1.30842 | 36916 ft | 478 kts | 142° |
| 2026-05-05 21:29 | 49.27737 | 1.34026 | 37131 ft | 479 kts | 142° |
| 2026-05-05 21:29 | 49.25127 | 1.37219 | 37355 ft | 481 kts | 142° |
| 2026-05-05 21:30 | 49.22511 | 1.40416 | 37590 ft | 482 kts | 142° |
| 2026-05-05 21:30 | 49.19886 | 1.43618 | 37808 ft | 483 kts | 142° |
| 2026-05-05 21:30 | 49.17261 | 1.46817 | 38052 ft | 484 kts | 142° |
| 2026-05-05 21:30 | 49.14625 | 1.50024 | 38268 ft | 485 kts | 142° |
| 2026-05-05 21:31 | 49.11981 | 1.53235 | 38495 ft | 486 kts | 143° |
| 2026-05-05 21:31 | 49.09335 | 1.56446 | 38709 ft | 486 kts | 143° |
| 2026-05-05 21:31 | 49.06684 | 1.59658 | 38900 ft | 486 kts | 143° |
| 2026-05-05 21:31 | 49.04067 | 1.62825 | 39118 ft | 486 kts | 143° |
| 2026-05-05 21:32 | 49.01384 | 1.66065 | 39332 ft | 486 kts | 143° |
| 2026-05-05 21:32 | 48.98771 | 1.69217 | 39541 ft | 486 kts | 143° |
| 2026-05-05 21:32 | 48.96123 | 1.72408 | 39748 ft | 486 kts | 143° |
| 2026-05-05 21:32 | 48.93437 | 1.75639 | 39962 ft | 486 kts | 143° |
| 2026-05-05 21:33 | 48.90820 | 1.78783 | 40155 ft | 486 kts | 143° |
| 2026-05-05 21:33 | 48.88168 | 1.81965 | 40364 ft | 485 kts | 143° |
| 2026-05-05 21:33 | 48.85518 | 1.85140 | 40569 ft | 485 kts | 143° |
| 2026-05-05 21:33 | 48.82865 | 1.88314 | 40768 ft | 485 kts | 143° |
| 2026-05-05 21:34 | 48.77535 | 1.94677 | 40853 ft | 488 kts | 143° |
| 2026-05-05 21:34 | 48.73163 | 1.99902 | 40849 ft | 482 kts | 140° |
| 2026-05-05 21:35 | 48.68448 | 2.07102 | 40855 ft | 482 kts | 135° |
| 2026-05-05 21:35 | 48.63773 | 2.14393 | 40851 ft | 483 kts | 136° |
| 2026-05-05 21:36 | 48.59065 | 2.21679 | 40849 ft | 484 kts | 135° |
| 2026-05-05 21:36 | 48.54363 | 2.28967 | 40846 ft | 484 kts | 136° |
| 2026-05-05 21:37 | 48.49656 | 2.36217 | 40843 ft | 483 kts | 136° |
| 2026-05-05 21:37 | 48.44953 | 2.43460 | 40830 ft | 484 kts | 136° |
| 2026-05-05 21:38 | 48.40239 | 2.50686 | 40832 ft | 484 kts | 136° |
| 2026-05-05 21:38 | 48.35520 | 2.57907 | 40831 ft | 484 kts | 136° |
| 2026-05-05 21:39 | 48.30826 | 2.65065 | 40833 ft | 484 kts | 136° |
| 2026-05-05 21:39 | 48.26098 | 2.72258 | 40836 ft | 484 kts | 136° |
| 2026-05-05 21:40 | 48.21361 | 2.79442 | 40841 ft | 485 kts | 136° |
| 2026-05-05 21:40 | 48.16608 | 2.86632 | 40842 ft | 486 kts | 136° |
| 2026-05-05 21:41 | 48.11847 | 2.93815 | 40842 ft | 486 kts | 136° |
| 2026-05-05 21:41 | 48.07084 | 3.00980 | 40846 ft | 485 kts | 136° |
| 2026-05-05 21:42 | 48.02326 | 3.08117 | 40846 ft | 484 kts | 136° |
| 2026-05-05 21:42 | 47.97575 | 3.15224 | 40844 ft | 483 kts | 136° |
| 2026-05-05 21:43 | 47.92816 | 3.22322 | 40852 ft | 484 kts | 137° |
| 2026-05-05 21:43 | 47.88051 | 3.29411 | 40854 ft | 484 kts | 137° |
| 2026-05-05 21:44 | 47.83272 | 3.36501 | 40855 ft | 485 kts | 137° |
| 2026-05-05 21:44 | 47.78485 | 3.43583 | 40859 ft | 485 kts | 137° |
| 2026-05-05 21:45 | 47.73703 | 3.50638 | 40859 ft | 484 kts | 137° |
| 2026-05-05 21:45 | 47.68920 | 3.57675 | 40865 ft | 484 kts | 137° |
| 2026-05-05 21:46 | 47.64132 | 3.64702 | 40866 ft | 484 kts | 137° |
| 2026-05-05 21:46 | 47.59336 | 3.71720 | 40876 ft | 484 kts | 137° |
| 2026-05-05 21:47 | 47.54537 | 3.78724 | 40877 ft | 484 kts | 137° |
| 2026-05-05 21:47 | 47.49738 | 3.85709 | 40882 ft | 484 kts | 137° |
| 2026-05-05 21:48 | 47.44936 | 3.92678 | 40882 ft | 484 kts | 137° |
| 2026-05-05 21:48 | 47.40150 | 3.99606 | 40886 ft | 485 kts | 137° |
| 2026-05-05 21:49 | 47.35328 | 4.06567 | 40891 ft | 485 kts | 138° |
| 2026-05-05 21:49 | 47.30486 | 4.13538 | 40895 ft | 486 kts | 138° |
| 2026-05-05 21:50 | 47.25649 | 4.20484 | 40900 ft | 485 kts | 138° |
| 2026-05-05 21:50 | 47.20817 | 4.27404 | 40904 ft | 484 kts | 138° |
| 2026-05-05 21:51 | 47.15982 | 4.34309 | 40904 ft | 485 kts | 138° |
| 2026-05-05 21:51 | 47.11142 | 4.41203 | 40908 ft | 485 kts | 138° |
| 2026-05-05 21:52 | 47.03876 | 4.51518 | 40910 ft | 484 kts | 138° |
| 2026-05-05 21:53 | 46.99859 | 4.57203 | 40917 ft | 483 kts | 138° |
| 2026-05-05 21:53 | 46.95028 | 4.64023 | 40915 ft | 482 kts | 139° |
| 2026-05-05 21:54 | 46.90192 | 4.70833 | 40907 ft | 483 kts | 139° |
| 2026-05-05 21:54 | 46.85346 | 4.77638 | 40912 ft | 483 kts | 139° |
| 2026-05-05 21:55 | 46.80492 | 4.84437 | 40912 ft | 484 kts | 139° |
| 2026-05-05 21:55 | 46.75618 | 4.91245 | 40918 ft | 485 kts | 139° |
| 2026-05-05 21:56 | 46.70732 | 4.98053 | 40911 ft | 486 kts | 139° |
| 2026-05-05 21:56 | 46.65839 | 5.04854 | 40910 ft | 486 kts | 139° |
| 2026-05-05 21:57 | 46.60988 | 5.11605 | 40912 ft | 486 kts | 138° |
| 2026-05-05 21:57 | 46.56132 | 5.18457 | 40914 ft | 486 kts | 139° |
| 2026-05-05 21:58 | 46.51247 | 5.25264 | 40914 ft | 487 kts | 139° |
| 2026-05-05 21:58 | 46.46359 | 5.32097 | 40914 ft | 488 kts | 139° |
| 2026-05-05 21:59 | 46.41459 | 5.38906 | 40921 ft | 487 kts | 139° |
| 2026-05-05 21:59 | 46.36569 | 5.45695 | 40920 ft | 487 kts | 139° |
| 2026-05-05 22:00 | 46.31675 | 5.52467 | 40934 ft | 486 kts | 139° |
| 2026-05-05 22:00 | 46.26786 | 5.59217 | 40937 ft | 485 kts | 140° |
| 2026-05-05 22:01 | 46.21906 | 5.65935 | 40939 ft | 484 kts | 140° |
| 2026-05-05 22:01 | 46.17180 | 5.72426 | 40930 ft | 484 kts | 140° |
| 2026-05-05 22:02 | 46.12301 | 5.79109 | 40944 ft | 484 kts | 140° |
| 2026-05-05 22:02 | 46.07451 | 5.85738 | 40941 ft | 484 kts | 140° |
| 2026-05-05 22:03 | 46.02569 | 5.92391 | 40932 ft | 483 kts | 140° |
| 2026-05-05 22:03 | 45.97696 | 5.99016 | 40927 ft | 482 kts | 140° |
| 2026-05-05 22:04 | 45.92825 | 6.05620 | 40930 ft | 482 kts | 140° |
| 2026-05-05 22:04 | 45.87942 | 6.12224 | 40930 ft | 482 kts | 140° |
| 2026-05-05 22:05 | 45.83053 | 6.18819 | 40935 ft | 483 kts | 140° |
| 2026-05-05 22:05 | 45.78159 | 6.25407 | 40934 ft | 483 kts | 140° |
| 2026-05-05 22:06 | 45.73262 | 6.31979 | 40939 ft | 483 kts | 140° |
| 2026-05-05 22:06 | 45.68364 | 6.38538 | 40941 ft | 482 kts | 141° |
| 2026-05-05 22:07 | 45.63469 | 6.45075 | 40954 ft | 481 kts | 141° |
| 2026-05-05 22:07 | 45.58567 | 6.51606 | 40938 ft | 482 kts | 141° |
| 2026-05-05 22:08 | 45.53662 | 6.58123 | 40940 ft | 482 kts | 141° |
| 2026-05-05 22:08 | 45.48744 | 6.64643 | 40947 ft | 482 kts | 141° |
| 2026-05-05 22:09 | 45.43856 | 6.71106 | 40958 ft | 483 kts | 141° |
| 2026-05-05 22:09 | 45.38919 | 6.77618 | 40955 ft | 484 kts | 141° |
| 2026-05-05 22:10 | 45.33975 | 6.84123 | 40959 ft | 484 kts | 141° |
| 2026-05-05 22:10 | 45.29024 | 6.90620 | 40964 ft | 485 kts | 141° |
| 2026-05-05 22:11 | 45.24143 | 6.97228 | 40980 ft | 485 kts | 140° |
| 2026-05-05 22:11 | 45.19277 | 7.03853 | 40975 ft | 485 kts | 140° |
| 2026-05-05 22:12 | 45.14442 | 7.10537 | 40989 ft | 486 kts | 140° |
| 2026-05-05 22:12 | 45.09781 | 7.17472 | 41018 ft | 491 kts | 129° |
| 2026-05-05 22:13 | 45.05829 | 7.25408 | 41001 ft | 495 kts | 129° |
| 2026-05-05 22:13 | 45.01877 | 7.33377 | 40995 ft | 495 kts | 129° |
| 2026-05-05 22:14 | 44.97829 | 7.41200 | 41012 ft | 488 kts | 137° |
| 2026-05-05 22:14 | 44.93059 | 7.47974 | 40990 ft | 486 kts | 140° |
| 2026-05-05 22:15 | 44.88252 | 7.54675 | 40977 ft | 485 kts | 140° |
| 2026-05-05 22:15 | 44.83464 | 7.61365 | 40958 ft | 484 kts | 140° |
| 2026-05-05 22:16 | 44.78668 | 7.68026 | 40962 ft | 484 kts | 140° |
| 2026-05-05 22:16 | 44.73866 | 7.74694 | 40957 ft | 485 kts | 140° |
| 2026-05-05 22:17 | 44.69090 | 7.81301 | 40962 ft | 486 kts | 140° |
| 2026-05-05 22:17 | 44.64268 | 7.87961 | 40960 ft | 486 kts | 140° |
| 2026-05-05 22:18 | 44.59446 | 7.94601 | 40961 ft | 486 kts | 140° |
| 2026-05-05 22:18 | 44.54611 | 8.01244 | 40958 ft | 487 kts | 140° |
| 2026-05-05 22:19 | 44.49767 | 8.07883 | 40961 ft | 487 kts | 140° |
| 2026-05-05 22:19 | 44.44917 | 8.14514 | 40960 ft | 487 kts | 140° |
| 2026-05-05 22:20 | 44.40065 | 8.21132 | 40960 ft | 487 kts | 140° |
| 2026-05-05 22:20 | 44.35216 | 8.27729 | 40972 ft | 486 kts | 140° |
| 2026-05-05 22:21 | 44.30360 | 8.34318 | 40949 ft | 487 kts | 140° |
| 2026-05-05 22:21 | 44.25496 | 8.40904 | 40952 ft | 488 kts | 140° |
| 2026-05-05 22:22 | 44.20624 | 8.47484 | 40950 ft | 488 kts | 140° |
| 2026-05-05 22:22 | 44.15742 | 8.54062 | 40947 ft | 488 kts | 141° |
| 2026-05-05 22:23 | 44.10866 | 8.60615 | 40944 ft | 487 kts | 141° |
| 2026-05-05 22:23 | 44.05984 | 8.67161 | 40939 ft | 488 kts | 141° |
| 2026-05-05 22:24 | 44.01098 | 8.73696 | 40945 ft | 488 kts | 141° |
| 2026-05-05 22:24 | 43.96204 | 8.80227 | 40937 ft | 488 kts | 141° |
| 2026-05-05 22:25 | 43.91298 | 8.86757 | 40937 ft | 489 kts | 141° |
| 2026-05-05 22:25 | 43.86419 | 8.93237 | 40939 ft | 489 kts | 141° |
| 2026-05-05 22:26 | 43.81509 | 8.99742 | 40943 ft | 488 kts | 141° |
| 2026-05-05 22:26 | 43.76592 | 9.06239 | 40945 ft | 489 kts | 141° |
| 2026-05-05 22:27 | 43.71667 | 9.12733 | 40942 ft | 489 kts | 141° |
| 2026-05-05 22:27 | 43.66739 | 9.19215 | 40948 ft | 489 kts | 141° |
| 2026-05-05 22:28 | 43.61810 | 9.25683 | 40955 ft | 489 kts | 141° |
| 2026-05-05 22:28 | 43.56878 | 9.32138 | 40946 ft | 489 kts | 141° |
| 2026-05-05 22:29 | 43.51944 | 9.38582 | 40946 ft | 489 kts | 141° |
| 2026-05-05 22:29 | 43.47009 | 9.45012 | 40941 ft | 488 kts | 141° |
| 2026-05-05 22:30 | 43.42072 | 9.51429 | 40943 ft | 489 kts | 141° |
| 2026-05-05 22:30 | 43.37123 | 9.57847 | 40940 ft | 489 kts | 142° |
| 2026-05-05 22:31 | 43.32201 | 9.64214 | 40943 ft | 489 kts | 142° |
| 2026-05-05 22:31 | 43.27248 | 9.70606 | 40944 ft | 488 kts | 142° |
| 2026-05-05 22:32 | 43.22291 | 9.76989 | 40947 ft | 489 kts | 142° |
| 2026-05-05 22:32 | 43.17320 | 9.83375 | 40937 ft | 490 kts | 142° |
| 2026-05-05 22:33 | 43.12339 | 9.89760 | 40896 ft | 490 kts | 142° |
| 2026-05-05 22:33 | 43.09853 | 9.92940 | 40583 ft | 490 kts | 142° |
| 2026-05-05 22:33 | 43.07374 | 9.96110 | 40218 ft | 487 kts | 142° |
| 2026-05-05 22:33 | 43.04903 | 9.99264 | 39852 ft | 484 kts | 142° |
| 2026-05-05 22:34 | 43.02448 | 10.02394 | 39495 ft | 482 kts | 143° |
| 2026-05-05 22:34 | 43.00004 | 10.05506 | 39146 ft | 479 kts | 143° |
| 2026-05-05 22:34 | 42.97571 | 10.08600 | 38802 ft | 477 kts | 143° |
| 2026-05-05 22:34 | 42.95150 | 10.11677 | 38425 ft | 474 kts | 143° |
| 2026-05-05 22:35 | 42.92740 | 10.14736 | 38062 ft | 470 kts | 143° |
| 2026-05-05 22:35 | 42.90356 | 10.17759 | 37706 ft | 467 kts | 143° |
| 2026-05-05 22:35 | 42.87989 | 10.20793 | 37170 ft | 468 kts | 140° |
| 2026-05-05 22:35 | 42.85908 | 10.24263 | 36596 ft | 480 kts | 128° |
| 2026-05-05 22:36 | 42.84301 | 10.28297 | 35980 ft | 488 kts | 120° |
| 2026-05-05 22:36 | 42.82843 | 10.32483 | 35380 ft | 490 kts | 120° |
| 2026-05-05 22:36 | 42.81412 | 10.36714 | 34783 ft | 493 kts | 120° |
| 2026-05-05 22:36 | 42.80011 | 10.40987 | 34185 ft | 495 kts | 120° |
| 2026-05-05 22:37 | 42.78589 | 10.45258 | 33540 ft | 492 kts | 120° |
| 2026-05-05 22:37 | 42.77188 | 10.49389 | 32965 ft | 471 kts | 120° |
| 2026-05-05 22:37 | 42.75814 | 10.53428 | 32405 ft | 470 kts | 120° |
| 2026-05-05 22:37 | 42.74447 | 10.57472 | 31858 ft | 471 kts | 120° |
| 2026-05-05 22:38 | 42.73085 | 10.61518 | 31293 ft | 471 kts | 120° |
| 2026-05-05 22:38 | 42.71623 | 10.65486 | 30729 ft | 466 kts | 127° |
| 2026-05-05 22:38 | 42.69916 | 10.69219 | 30039 ft | 461 kts | 127° |
| 2026-05-05 22:38 | 42.68259 | 10.72833 | 29376 ft | 439 kts | 127° |
| 2026-05-05 22:39 | 42.66645 | 10.76352 | 28614 ft | 439 kts | 127° |
| 2026-05-05 22:39 | 42.65046 | 10.79837 | 28266 ft | 433 kts | 127° |
| 2026-05-05 22:39 | 42.63458 | 10.83298 | 27826 ft | 430 kts | 127° |
| 2026-05-05 22:39 | 42.61882 | 10.86729 | 27406 ft | 427 kts | 127° |
| 2026-05-05 22:40 | 42.60316 | 10.90132 | 26996 ft | 423 kts | 127° |
| 2026-05-05 22:40 | 42.58761 | 10.93507 | 26579 ft | 420 kts | 126° |
| 2026-05-05 22:40 | 42.57216 | 10.96856 | 26163 ft | 417 kts | 126° |
| 2026-05-05 22:40 | 42.56201 | 10.99055 | 25900 ft | 415 kts | 126° |
| 2026-05-05 22:41 | 42.54679 | 11.02351 | 25439 ft | 406 kts | 126° |
| 2026-05-05 22:41 | 42.53176 | 11.05600 | 24472 ft | 409 kts | 126° |
| 2026-05-05 22:41 | 42.51682 | 11.08825 | 24244 ft | 401 kts | 126° |
| 2026-05-05 22:41 | 42.50204 | 11.12014 | 23844 ft | 399 kts | 126° |
| 2026-05-05 22:42 | 42.48257 | 11.16210 | 23298 ft | 395 kts | 126° |
| 2026-05-05 22:42 | 42.46800 | 11.19345 | 22814 ft | 393 kts | 126° |
| 2026-05-05 22:42 | 42.45818 | 11.21457 | 22510 ft | 391 kts | 126° |
| 2026-05-05 22:42 | 42.44468 | 11.24645 | 22058 ft | 392 kts | 115° |
| 2026-05-05 22:43 | 42.43754 | 11.28203 | 21622 ft | 393 kts | 102° |
| 2026-05-05 22:43 | 42.43332 | 11.31856 | 21149 ft | 392 kts | 101° |
| 2026-05-05 22:43 | 42.42941 | 11.35495 | 20729 ft | 389 kts | 101° |
| 2026-05-05 22:43 | 42.42544 | 11.39106 | 20446 ft | 384 kts | 101° |
| 2026-05-05 22:44 | 42.42157 | 11.42513 | 20351 ft | 360 kts | 101° |
| 2026-05-05 22:44 | 42.41775 | 11.45845 | 19683 ft | 358 kts | 101° |
| 2026-05-05 22:44 | 42.41394 | 11.49201 | 19065 ft | 354 kts | 101° |
| 2026-05-05 22:44 | 42.41028 | 11.52430 | 18487 ft | 350 kts | 102° |
| 2026-05-05 22:45 | 42.40357 | 11.55535 | 17810 ft | 340 kts | 122° |
| 2026-05-05 22:45 | 42.38985 | 11.58054 | 17165 ft | 328 kts | 142° |
| 2026-05-05 22:45 | 42.37130 | 11.59742 | 16550 ft | 318 kts | 161° |
| 2026-05-05 22:45 | 42.35054 | 11.60766 | 16294 ft | 317 kts | 164° |
| 2026-05-05 22:46 | 42.32979 | 11.61734 | 16284 ft | 314 kts | 165° |
| 2026-05-05 22:46 | 42.30910 | 11.62689 | 16184 ft | 315 kts | 165° |
| 2026-05-05 22:46 | 42.28839 | 11.63653 | 16120 ft | 314 kts | 165° |
| 2026-05-05 22:46 | 42.26789 | 11.64612 | 16125 ft | 311 kts | 165° |
| 2026-05-05 22:47 | 42.24739 | 11.65459 | 15987 ft | 305 kts | 167° |
| 2026-05-05 22:47 | 42.22776 | 11.66330 | 15708 ft | 287 kts | 165° |
| 2026-05-05 22:47 | 42.20927 | 11.67177 | 15438 ft | 277 kts | 166° |
| 2026-05-05 22:47 | 42.19084 | 11.67965 | 15215 ft | 277 kts | 166° |
| 2026-05-05 22:48 | 42.17257 | 11.68737 | 14987 ft | 273 kts | 166° |
| 2026-05-05 22:48 | 42.15466 | 11.69508 | 14536 ft | 268 kts | 166° |
| 2026-05-05 22:48 | 42.13685 | 11.70276 | 13818 ft | 269 kts | 166° |
| 2026-05-05 22:48 | 42.11916 | 11.71037 | 13120 ft | 265 kts | 166° |
| 2026-05-05 22:49 | 42.10173 | 11.71786 | 12432 ft | 261 kts | 165° |
| 2026-05-05 22:49 | 42.08456 | 11.72536 | 11761 ft | 258 kts | 162° |
| 2026-05-05 22:49 | 42.06958 | 11.73907 | 11409 ft | 263 kts | 136° |
| 2026-05-05 22:49 | 42.06021 | 11.76009 | 11087 ft | 267 kts | 109° |
| 2026-05-05 22:50 | 42.05840 | 11.78433 | 10499 ft | 268 kts | 82° |
| 2026-05-05 22:50 | 42.06338 | 11.80850 | 9819 ft | 268 kts | 74° |
| 2026-05-05 22:50 | 42.06911 | 11.83216 | 9181 ft | 264 kts | 73° |
| 2026-05-05 22:50 | 42.07545 | 11.85459 | 9040 ft | 253 kts | 63° |
| 2026-05-05 22:51 | 42.08803 | 11.87198 | 9056 ft | 270 kts | 29° |
| 2026-05-05 22:51 | 42.10580 | 11.87851 | 9060 ft | 265 kts | 357° |
| 2026-05-05 22:51 | 42.12361 | 11.87352 | 9055 ft | 261 kts | 341° |
| 2026-05-05 22:51 | 42.14058 | 11.86625 | 9055 ft | 253 kts | 339° |
| 2026-05-05 22:52 | 42.15718 | 11.85889 | 9055 ft | 251 kts | 339° |
| 2026-05-05 22:52 | 42.17378 | 11.85173 | 9054 ft | 250 kts | 340° |
| 2026-05-05 22:52 | 42.19039 | 11.84469 | 9049 ft | 250 kts | 340° |
| 2026-05-05 22:52 | 42.20697 | 11.83760 | 9046 ft | 250 kts | 340° |
| 2026-05-05 22:53 | 42.22356 | 11.83049 | 9038 ft | 250 kts | 340° |
| 2026-05-05 22:53 | 42.24016 | 11.82337 | 9039 ft | 250 kts | 340° |
| 2026-05-05 22:53 | 42.25707 | 11.81806 | 9006 ft | 253 kts | 359° |
| 2026-05-05 22:53 | 42.27346 | 11.82565 | 9013 ft | 250 kts | 35° |
| 2026-05-05 22:54 | 42.28475 | 11.84275 | 9020 ft | 242 kts | 64° |
| 2026-05-05 22:54 | 42.28877 | 11.86385 | 9028 ft | 229 kts | 91° |
| 2026-05-05 22:54 | 42.28694 | 11.88483 | 9030 ft | 223 kts | 102° |
| 2026-05-05 22:54 | 42.28440 | 11.90546 | 9040 ft | 222 kts | 102° |
| 2026-05-05 22:55 | 42.28212 | 11.92614 | 9041 ft | 223 kts | 101° |
| 2026-05-05 22:55 | 42.27995 | 11.94687 | 9049 ft | 223 kts | 101° |
| 2026-05-05 22:55 | 42.27472 | 11.96604 | 9007 ft | 217 kts | 129° |
| 2026-05-05 22:55 | 42.26325 | 11.97838 | 9019 ft | 211 kts | 158° |
| 2026-05-05 22:56 | 42.24911 | 11.98482 | 8735 ft | 216 kts | 165° |
| 2026-05-05 22:56 | 42.23469 | 11.99072 | 8446 ft | 217 kts | 165° |
| 2026-05-05 22:56 | 42.22020 | 11.99680 | 8139 ft | 218 kts | 165° |
| 2026-05-05 22:56 | 42.20582 | 12.00294 | 7783 ft | 221 kts | 165° |
| 2026-05-05 22:57 | 42.19095 | 12.00929 | 7459 ft | 218 kts | 165° |
| 2026-05-05 22:57 | 42.17704 | 12.01526 | 7179 ft | 207 kts | 165° |
| 2026-05-05 22:57 | 42.16351 | 12.02103 | 6900 ft | 202 kts | 165° |
| 2026-05-05 22:57 | 42.15021 | 12.02669 | 6595 ft | 200 kts | 165° |
| 2026-05-05 22:58 | 42.13702 | 12.03230 | 6299 ft | 200 kts | 165° |
| 2026-05-05 22:58 | 42.12365 | 12.03807 | 6035 ft | 202 kts | 163° |
| 2026-05-05 22:58 | 42.11218 | 12.04901 | 5753 ft | 208 kts | 137° |
| 2026-05-05 22:58 | 42.10254 | 12.06339 | 5538 ft | 206 kts | 136° |
| 2026-05-05 22:59 | 42.09288 | 12.07757 | 5309 ft | 204 kts | 136° |
| 2026-05-05 22:59 | 42.08327 | 12.09159 | 5106 ft | 203 kts | 136° |
| 2026-05-05 22:59 | 42.07372 | 12.10555 | 4885 ft | 202 kts | 136° |
| 2026-05-05 22:59 | 42.06338 | 12.11808 | 4622 ft | 199 kts | 149° |
| 2026-05-05 23:00 | 42.03819 | 12.13240 | 4169 ft | 196 kts | 163° |
| 2026-05-05 23:00 | 42.02530 | 12.13793 | 4039 ft | 190 kts | 164° |
| 2026-05-05 23:00 | 42.01282 | 12.14319 | 3971 ft | 190 kts | 164° |
| 2026-05-05 23:01 | 42.00007 | 12.14855 | 3759 ft | 192 kts | 164° |
| 2026-05-05 23:01 | 41.98803 | 12.15362 | 3514 ft | 194 kts | 164° |
| 2026-05-05 23:01 | 41.97512 | 12.15905 | 3245 ft | 195 kts | 164° |
| 2026-05-05 23:01 | 41.96211 | 12.16452 | 2987 ft | 196 kts | 164° |
| 2026-05-05 23:02 | 41.94916 | 12.17005 | 2721 ft | 190 kts | 163° |
| 2026-05-05 23:02 | 41.93702 | 12.17520 | 2473 ft | 176 kts | 164° |
| 2026-05-05 23:02 | 41.92544 | 12.18008 | 2247 ft | 171 kts | 163° |
| 2026-05-05 23:02 | 41.91451 | 12.18467 | 2023 ft | 158 kts | 163° |
| 2026-05-05 23:03 | 41.90443 | 12.18892 | 1817 ft | 144 kts | 163° |
| 2026-05-05 23:03 | 41.89529 | 12.19276 | 1637 ft | 137 kts | 163° |
| 2026-05-05 23:03 | 41.88612 | 12.19661 | 1444 ft | 137 kts | 163° |
| 2026-05-05 23:03 | 41.87716 | 12.20045 | 1269 ft | 137 kts | 163° |
| 2026-05-05 23:04 | 41.86789 | 12.20432 | 1051 ft | 142 kts | 162° |
| 2026-05-05 23:04 | 41.85854 | 12.20826 | 890 ft | 140 kts | 162° |
| 2026-05-05 23:04 | 41.84909 | 12.21221 | 720 ft | 145 kts | 161° |
| 2026-05-05 23:04 | 41.83935 | 12.21638 | 525 ft | 148 kts | 161° |
| 2026-05-05 23:05 | 41.82952 | 12.22045 | 353 ft | 147 kts | 160° |
| 2026-05-05 23:05 | 41.81974 | 12.22461 | 142 ft | 148 kts | 161° |
| 2026-05-05 23:05 | 41.81014 | 12.22853 | 26 ft | 134 kts | 158° |
| 2026-05-05 23:05 | 41.80402 | 12.23119 | 26 ft | 50 kts | 162° |
| 2026-05-05 23:06 | 41.80191 | 12.23204 | 25 ft | 14 kts | 163° |
| 2026-05-05 23:06 | 41.80070 | 12.23256 | 27 ft | 22 kts | 161° |
| 2026-05-05 23:06 | 41.79898 | 12.23330 | 27 ft | 30 kts | 163° |
| 2026-05-05 23:06 | 41.79683 | 12.23425 | 20 ft | 34 kts | 160° |
| 2026-05-05 23:07 | 41.79502 | 12.23556 | 20 ft | 23 kts | 139° |
| 2026-05-05 23:07 | 41.79402 | 12.23690 | 21 ft | 20 kts | 134° |
| 2026-05-05 23:07 | 41.79332 | 12.23795 | 21 ft | 5 kts | 124° |
| 2026-05-05 23:07 | 41.79321 | 12.23825 | 21 ft | 8 kts | 106° |
| 2026-05-05 23:08 | 41.79319 | 12.23904 | 21 ft | 8 kts | 81° |
| 2026-05-05 23:08 | 41.79333 | 12.23978 | 21 ft | 8 kts | 63° |
| 2026-05-05 23:08 | 41.79374 | 12.24014 | 21 ft | 7 kts | 356° |
| 2026-05-05 23:08 | 41.79424 | 12.23998 | 21 ft | 8 kts | 343° |
| 2026-05-05 23:09 | 41.79486 | 12.23968 | 21 ft | 11 kts | 338° |
| 2026-05-05 23:09 | 41.79544 | 12.23961 | 21 ft | 7 kts | 31° |
| 2026-05-05 23:09 | 41.79574 | 12.24022 | 23 ft | 9 kts | 66° |
| 2026-05-05 23:09 | 41.79583 | 12.24049 | 21 ft | 0 kts | 68° |